sensor_id;sensor_type;location;lat;lon;timestamp;pressure;altitude;pressure_sealevel;temperature;humidity
44441;BME280;30146;52.268;20.944;2023-03-01T00:01:38;101714.23;;;-0.69;56.40
44441;BME280;30146;52.268;20.944;2023-03-01T00:04:06;101709.74;;;-0.71;56.13
44441;BME280;30146;52.268;20.944;2023-03-01T00:06:36;101706.45;;;-0.72;56.62
44441;BME280;30146;52.268;20.944;2023-03-01T00:09:05;101707.25;;;-0.73;56.46
44441;BME280;30146;52.268;20.944;2023-03-01T00:11:34;101704.98;;;-0.75;56.34
44441;BME280;30146;52.268;20.944;2023-03-01T00:14:02;101703.73;;;-0.76;56.72
44441;BME280;30146;52.268;20.944;2023-03-01T00:16:34;101701.77;;;-0.75;56.78
44441;BME280;30146;52.268;20.944;2023-03-01T00:19:03;101699.48;;;-0.74;56.82
44441;BME280;30146;52.268;20.944;2023-03-01T00:21:31;101697.73;;;-0.75;56.80
44441;BME280;30146;52.268;20.944;2023-03-01T00:23:59;101693.63;;;-0.77;56.84
44441;BME280;30146;52.268;20.944;2023-03-01T00:26:27;101688.99;;;-0.78;56.74
44441;BME280;30146;52.268;20.944;2023-03-01T00:28:58;101689.46;;;-0.79;56.81
44441;BME280;30146;52.268;20.944;2023-03-01T00:31:28;101688.08;;;-0.80;57.16
44441;BME280;30146;52.268;20.944;2023-03-01T00:33:59;101679.13;;;-0.81;57.12
44441;BME280;30146;52.268;20.944;2023-03-01T00:36:28;101679.13;;;-0.80;57.31
44441;BME280;30146;52.268;20.944;2023-03-01T00:38:58;101682.39;;;-0.79;57.35
44441;BME280;30146;52.268;20.944;2023-03-01T00:41:27;101683.36;;;-0.77;57.31
44441;BME280;30146;52.268;20.944;2023-03-01T00:43:55;101687.98;;;-0.75;57.33
44441;BME280;30146;52.268;20.944;2023-03-01T00:46:25;101691.73;;;-0.74;57.42
44441;BME280;30146;52.268;20.944;2023-03-01T00:48:54;101693.48;;;-0.73;57.48
44441;BME280;30146;52.268;20.944;2023-03-01T00:51:23;101690.69;;;-0.72;57.45
44441;BME280;30146;52.268;20.944;2023-03-01T00:53:52;101686.88;;;-0.71;57.78
44441;BME280;30146;52.268;20.944;2023-03-01T00:56:21;101687.38;;;-0.71;57.54
44441;BME280;30146;52.268;20.944;2023-03-01T00:58:49;101687.74;;;-0.71;57.60
44441;BME280;30146;52.268;20.944;2023-03-01T01:01:19;101687.29;;;-0.70;57.68
44441;BME280;30146;52.268;20.944;2023-03-01T01:03:51;101680.15;;;-0.71;57.55
44441;BME280;30146;52.268;20.944;2023-03-01T01:06:22;101676.73;;;-0.72;57.49
44441;BME280;30146;52.268;20.944;2023-03-01T01:08:51;101674.70;;;-0.73;57.74
44441;BME280;30146;52.268;20.944;2023-03-01T01:11:20;101662.42;;;-0.73;57.75
44441;BME280;30146;52.268;20.944;2023-03-01T01:13:49;101660.88;;;-0.73;57.74
44441;BME280;30146;52.268;20.944;2023-03-01T01:16:19;101657.18;;;-0.74;57.83
44441;BME280;30146;52.268;20.944;2023-03-01T01:18:49;101654.02;;;-0.73;57.75
44441;BME280;30146;52.268;20.944;2023-03-01T01:21:20;101657.64;;;-0.72;57.84
44441;BME280;30146;52.268;20.944;2023-03-01T01:23:49;101654.70;;;-0.70;58.01
44441;BME280;30146;52.268;20.944;2023-03-01T01:26:19;101650.13;;;-0.71;57.97
44441;BME280;30146;52.268;20.944;2023-03-01T01:28:47;101651.48;;;-0.71;57.64
44441;BME280;30146;52.268;20.944;2023-03-01T01:31:16;101647.90;;;-0.72;57.89
44441;BME280;30146;52.268;20.944;2023-03-01T01:33:45;101647.91;;;-0.71;57.86
44441;BME280;30146;52.268;20.944;2023-03-01T01:36:13;101643.53;;;-0.72;58.10
44441;BME280;30146;52.268;20.944;2023-03-01T01:38:41;101639.33;;;-0.72;57.98
44441;BME280;30146;52.268;20.944;2023-03-01T01:41:11;101639.79;;;-0.73;58.02
44441;BME280;30146;52.268;20.944;2023-03-01T01:43:41;101646.94;;;-0.71;58.15
44441;BME280;30146;52.268;20.944;2023-03-01T01:46:21;101641.09;;;-0.73;58.08
44441;BME280;30146;52.268;20.944;2023-03-01T01:48:55;101635.92;;;-0.73;58.03
44441;BME280;30146;52.268;20.944;2023-03-01T01:51:28;101635.52;;;-0.74;57.93
44441;BME280;30146;52.268;20.944;2023-03-01T01:53:59;101629.27;;;-0.77;57.60
44441;BME280;30146;52.268;20.944;2023-03-01T01:56:30;101632.46;;;-0.80;57.87
44441;BME280;30146;52.268;20.944;2023-03-01T01:58:59;101632.81;;;-0.83;57.89
44441;BME280;30146;52.268;20.944;2023-03-01T02:01:27;101633.45;;;-0.84;57.97
44441;BME280;30146;52.268;20.944;2023-03-01T02:03:55;101626.20;;;-0.84;57.83
44441;BME280;30146;52.268;20.944;2023-03-01T02:06:27;101623.95;;;-0.85;57.85
44441;BME280;30146;52.268;20.944;2023-03-01T02:09:02;101619.55;;;-0.86;57.95
44441;BME280;30146;52.268;20.944;2023-03-01T02:11:33;101621.95;;;-0.85;58.07
44441;BME280;30146;52.268;20.944;2023-03-01T02:14:01;101615.48;;;-0.87;57.92
44441;BME280;30146;52.268;20.944;2023-03-01T02:16:29;101621.69;;;-0.87;58.08
44441;BME280;30146;52.268;20.944;2023-03-01T02:18:58;101621.88;;;-0.86;58.30
44441;BME280;30146;52.268;20.944;2023-03-01T02:21:38;101616.86;;;-0.86;58.30
44441;BME280;30146;52.268;20.944;2023-03-01T02:24:19;101618.61;;;-0.85;58.19
44441;BME280;30146;52.268;20.944;2023-03-01T02:26:52;101622.92;;;-0.85;57.98
44441;BME280;30146;52.268;20.944;2023-03-01T02:29:22;101615.63;;;-0.87;58.23
44441;BME280;30146;52.268;20.944;2023-03-01T02:31:52;101614.54;;;-0.88;58.09
44441;BME280;30146;52.268;20.944;2023-03-01T02:34:25;101608.19;;;-0.91;58.06
44441;BME280;30146;52.268;20.944;2023-03-01T02:36:57;101603.27;;;-0.95;58.27
44441;BME280;30146;52.268;20.944;2023-03-01T02:39:32;101602.05;;;-0.95;58.23
44441;BME280;30146;52.268;20.944;2023-03-01T02:42:02;101600.95;;;-0.97;58.37
44441;BME280;30146;52.268;20.944;2023-03-01T02:44:31;101600.77;;;-0.98;58.53
44441;BME280;30146;52.268;20.944;2023-03-01T02:47:02;101602.43;;;-0.98;58.54
44441;BME280;30146;52.268;20.944;2023-03-01T02:49:32;101603.35;;;-0.96;58.57
44441;BME280;30146;52.268;20.944;2023-03-01T02:52:12;101607.13;;;-0.94;58.70
44441;BME280;30146;52.268;20.944;2023-03-01T02:54:48;101607.27;;;-0.93;58.76
44441;BME280;30146;52.268;20.944;2023-03-01T02:57:19;101603.92;;;-0.92;58.54
44441;BME280;30146;52.268;20.944;2023-03-01T02:59:48;101599.83;;;-0.93;58.62
44441;BME280;30146;52.268;20.944;2023-03-01T03:02:22;101585.09;;;-0.96;58.66
44441;BME280;30146;52.268;20.944;2023-03-01T03:05:09;101583.23;;;-0.99;58.90
44441;BME280;30146;52.268;20.944;2023-03-01T03:07:39;101579.34;;;-1.02;58.78
44441;BME280;30146;52.268;20.944;2023-03-01T03:10:11;101579.92;;;-1.04;58.89
44441;BME280;30146;52.268;20.944;2023-03-01T03:12:40;101585.98;;;-1.04;58.84
44441;BME280;30146;52.268;20.944;2023-03-01T03:15:11;101582.31;;;-1.03;58.93
44441;BME280;30146;52.268;20.944;2023-03-01T03:17:42;101577.28;;;-1.03;58.85
44441;BME280;30146;52.268;20.944;2023-03-01T03:20:28;101568.00;;;-1.04;59.00
44441;BME280;30146;52.268;20.944;2023-03-01T03:22:58;101561.35;;;-1.05;58.81
44441;BME280;30146;52.268;20.944;2023-03-01T03:25:28;101561.47;;;-1.07;58.78
44441;BME280;30146;52.268;20.944;2023-03-01T03:27:57;101560.31;;;-1.06;59.07
44441;BME280;30146;52.268;20.944;2023-03-01T03:30:27;101559.35;;;-1.06;59.29
44441;BME280;30146;52.268;20.944;2023-03-01T03:32:56;101552.89;;;-1.04;59.15
44441;BME280;30146;52.268;20.944;2023-03-01T03:35:27;101550.09;;;-1.03;59.30
44441;BME280;30146;52.268;20.944;2023-03-01T03:37:58;101550.20;;;-1.04;59.21
44441;BME280;30146;52.268;20.944;2023-03-01T03:40:31;101557.63;;;-1.04;59.18
44441;BME280;30146;52.268;20.944;2023-03-01T03:42:59;101563.55;;;-1.03;59.29
44441;BME280;30146;52.268;20.944;2023-03-01T03:45:28;101569.61;;;-1.02;59.40
44441;BME280;30146;52.268;20.944;2023-03-01T03:47:56;101564.97;;;-1.01;59.49
44441;BME280;30146;52.268;20.944;2023-03-01T03:50:24;101562.67;;;-1.01;59.37
44441;BME280;30146;52.268;20.944;2023-03-01T03:52:52;101555.86;;;-0.99;59.47
44441;BME280;30146;52.268;20.944;2023-03-01T03:55:20;101552.05;;;-0.99;59.43
44441;BME280;30146;52.268;20.944;2023-03-01T03:57:48;101548.61;;;-0.97;59.34
44441;BME280;30146;52.268;20.944;2023-03-01T04:00:20;101549.15;;;-0.99;59.18
44441;BME280;30146;52.268;20.944;2023-03-01T04:02:51;101547.80;;;-0.99;59.04
44441;BME280;30146;52.268;20.944;2023-03-01T04:05:23;101546.59;;;-1.00;59.09
44441;BME280;30146;52.268;20.944;2023-03-01T04:07:52;101540.70;;;-1.00;59.10
44441;BME280;30146;52.268;20.944;2023-03-01T04:10:30;101534.86;;;-1.02;59.10
44441;BME280;30146;52.268;20.944;2023-03-01T04:12:59;101534.75;;;-1.04;58.95
44441;BME280;30146;52.268;20.944;2023-03-01T04:15:27;101531.50;;;-1.06;59.04
44441;BME280;30146;52.268;20.944;2023-03-01T04:17:56;101527.57;;;-1.07;58.95
44441;BME280;30146;52.268;20.944;2023-03-01T04:20:25;101534.42;;;-1.07;59.23
44441;BME280;30146;52.268;20.944;2023-03-01T04:22:59;101548.27;;;-1.06;59.31
44441;BME280;30146;52.268;20.944;2023-03-01T04:25:37;101546.87;;;-1.04;59.62
44441;BME280;30146;52.268;20.944;2023-03-01T04:28:05;101540.77;;;-1.02;59.57
44441;BME280;30146;52.268;20.944;2023-03-01T04:30:35;101541.84;;;-1.01;59.46
44441;BME280;30146;52.268;20.944;2023-03-01T04:33:05;101534.48;;;-1.01;59.54
44441;BME280;30146;52.268;20.944;2023-03-01T04:35:33;101525.39;;;-1.01;59.52
44441;BME280;30146;52.268;20.944;2023-03-01T04:38:02;101519.58;;;-1.03;59.50
44441;BME280;30146;52.268;20.944;2023-03-01T04:40:30;101516.90;;;-1.02;59.30
44441;BME280;30146;52.268;20.944;2023-03-01T04:42:59;101517.44;;;-1.02;59.28
44441;BME280;30146;52.268;20.944;2023-03-01T04:45:27;101514.23;;;-1.02;59.28
44441;BME280;30146;52.268;20.944;2023-03-01T04:47:55;101507.91;;;-1.01;59.41
44441;BME280;30146;52.268;20.944;2023-03-01T04:50:25;101507.48;;;-1.00;59.68
44441;BME280;30146;52.268;20.944;2023-03-01T04:52:53;101502.33;;;-0.99;59.55
44441;BME280;30146;52.268;20.944;2023-03-01T04:55:22;101499.83;;;-0.99;59.70
44441;BME280;30146;52.268;20.944;2023-03-01T04:57:53;101503.05;;;-0.95;59.74
44441;BME280;30146;52.268;20.944;2023-03-01T05:00:22;101500.29;;;-0.93;59.86
44441;BME280;30146;52.268;20.944;2023-03-01T05:02:52;101503.58;;;-0.91;59.92
44441;BME280;30146;52.268;20.944;2023-03-01T05:05:24;101500.79;;;-0.90;59.86
44441;BME280;30146;52.268;20.944;2023-03-01T05:07:54;101498.84;;;-0.89;59.62
44441;BME280;30146;52.268;20.944;2023-03-01T05:10:23;101499.20;;;-0.89;59.72
44441;BME280;30146;52.268;20.944;2023-03-01T05:12:52;101502.55;;;-0.89;59.73
44441;BME280;30146;52.268;20.944;2023-03-01T05:15:20;101509.96;;;-0.88;59.73
44441;BME280;30146;52.268;20.944;2023-03-01T05:17:53;101516.38;;;-0.88;59.57
44441;BME280;30146;52.268;20.944;2023-03-01T05:20:30;101514.15;;;-0.88;59.49
44441;BME280;30146;52.268;20.944;2023-03-01T05:22:59;101511.82;;;-0.88;59.73
44441;BME280;30146;52.268;20.944;2023-03-01T05:25:33;101510.33;;;-0.88;59.62
44441;BME280;30146;52.268;20.944;2023-03-01T05:28:02;101515.84;;;-0.88;59.58
44441;BME280;30146;52.268;20.944;2023-03-01T05:30:32;101521.42;;;-0.87;59.76
44441;BME280;30146;52.268;20.944;2023-03-01T05:33:01;101529.73;;;-0.86;59.90
44441;BME280;30146;52.268;20.944;2023-03-01T05:35:32;101533.72;;;-0.84;59.93
44441;BME280;30146;52.268;20.944;2023-03-01T05:38:01;101537.66;;;-0.83;59.70
44441;BME280;30146;52.268;20.944;2023-03-01T05:40:32;101543.64;;;-0.81;59.66
44441;BME280;30146;52.268;20.944;2023-03-01T05:43:01;101541.69;;;-0.76;59.86
44441;BME280;30146;52.268;20.944;2023-03-01T05:45:33;101541.63;;;-0.71;59.73
44441;BME280;30146;52.268;20.944;2023-03-01T05:48:04;101545.45;;;-0.66;59.82
44441;BME280;30146;52.268;20.944;2023-03-01T05:50:58;101547.30;;;-0.60;59.79
44441;BME280;30146;52.268;20.944;2023-03-01T05:53:28;101550.10;;;-0.55;59.84
44441;BME280;30146;52.268;20.944;2023-03-01T05:55:58;101549.88;;;-0.49;59.73
44441;BME280;30146;52.268;20.944;2023-03-01T06:01:53;101551.41;;;-0.34;59.73
44441;BME280;30146;52.268;20.944;2023-03-01T06:04:21;101545.69;;;-0.24;59.89
44441;BME280;30146;52.268;20.944;2023-03-01T06:06:49;101543.20;;;-0.11;59.91
44441;BME280;30146;52.268;20.944;2023-03-01T06:09:17;101543.84;;;0.04;60.01
44441;BME280;30146;52.268;20.944;2023-03-01T06:11:51;101542.23;;;0.21;59.98
44441;BME280;30146;52.268;20.944;2023-03-01T06:14:19;101544.16;;;0.40;59.89
44441;BME280;30146;52.268;20.944;2023-03-01T06:16:48;101539.29;;;0.60;59.78
44441;BME280;30146;52.268;20.944;2023-03-01T06:19:16;101537.29;;;0.84;59.78
44441;BME280;30146;52.268;20.944;2023-03-01T06:21:45;101535.15;;;1.13;59.74
44441;BME280;30146;52.268;20.944;2023-03-01T06:24:13;101529.15;;;1.43;59.66
44441;BME280;30146;52.268;20.944;2023-03-01T06:26:41;101529.98;;;1.75;59.59
44441;BME280;30146;52.268;20.944;2023-03-01T06:29:10;101530.13;;;2.09;59.39
44441;BME280;30146;52.268;20.944;2023-03-01T06:32:04;101530.22;;;2.54;59.08
44441;BME280;30146;52.268;20.944;2023-03-01T06:35:16;101534.08;;;3.11;59.20
44441;BME280;30146;52.268;20.944;2023-03-01T06:37:46;101532.52;;;3.58;58.92
44441;BME280;30146;52.268;20.944;2023-03-01T06:40:15;101527.43;;;4.03;58.54
44441;BME280;30146;52.268;20.944;2023-03-01T06:42:48;101527.43;;;4.47;57.78
44441;BME280;30146;52.268;20.944;2023-03-01T06:45:18;101524.13;;;4.95;57.58
44441;BME280;30146;52.268;20.944;2023-03-01T06:47:47;101524.35;;;5.46;57.06
44441;BME280;30146;52.268;20.944;2023-03-01T06:50:16;101519.68;;;6.00;56.56
44441;BME280;30146;52.268;20.944;2023-03-01T06:53:09;101518.48;;;6.57;56.07
44441;BME280;30146;52.268;20.944;2023-03-01T06:56:19;101518.30;;;7.40;55.47
44441;BME280;30146;52.268;20.944;2023-03-01T06:58:52;101519.88;;;8.08;54.94
44441;BME280;30146;52.268;20.944;2023-03-01T07:05:03;101521.89;;;9.45;53.22
44441;BME280;30146;52.268;20.944;2023-03-01T07:07:31;101521.56;;;10.14;52.56
44441;BME280;30146;52.268;20.944;2023-03-01T07:09:59;101522.09;;;10.64;51.66
44441;BME280;30146;52.268;20.944;2023-03-01T07:12:28;101524.17;;;11.09;50.48
44441;BME280;30146;52.268;20.944;2023-03-01T07:14:57;101520.02;;;11.56;49.76
44441;BME280;30146;52.268;20.944;2023-03-01T07:17:25;101512.77;;;12.18;49.46
44441;BME280;30146;52.268;20.944;2023-03-01T07:19:53;101509.07;;;12.78;48.87
44441;BME280;30146;52.268;20.944;2023-03-01T07:22:24;101510.39;;;13.44;48.26
44441;BME280;30146;52.268;20.944;2023-03-01T07:24:55;101498.66;;;13.99;47.11
44441;BME280;30146;52.268;20.944;2023-03-01T07:27:24;101492.39;;;14.42;45.99
44441;BME280;30146;52.268;20.944;2023-03-01T07:29:52;101492.84;;;14.79;45.41
44441;BME280;30146;52.268;20.944;2023-03-01T07:32:20;101488.79;;;15.24;44.87
44441;BME280;30146;52.268;20.944;2023-03-01T07:34:50;101482.05;;;15.72;44.15
44441;BME280;30146;52.268;20.944;2023-03-01T07:37:18;101483.50;;;16.20;43.56
44441;BME280;30146;52.268;20.944;2023-03-01T07:39:47;101482.52;;;16.71;43.06
44441;BME280;30146;52.268;20.944;2023-03-01T07:42:15;101482.09;;;17.17;42.04
44441;BME280;30146;52.268;20.944;2023-03-01T07:44:44;101482.32;;;17.50;41.34
44441;BME280;30146;52.268;20.944;2023-03-01T07:47:12;101482.52;;;17.99;41.26
44441;BME280;30146;52.268;20.944;2023-03-01T07:49:43;101479.73;;;18.46;40.51
44441;BME280;30146;52.268;20.944;2023-03-01T07:52:12;101482.30;;;19.03;40.15
44441;BME280;30146;52.268;20.944;2023-03-01T07:54:43;101481.80;;;19.59;39.54
44441;BME280;30146;52.268;20.944;2023-03-01T07:57:12;101474.46;;;20.19;39.24
44441;BME280;30146;52.268;20.944;2023-03-01T07:59:41;101481.07;;;20.73;38.25
44441;BME280;30146;52.268;20.944;2023-03-01T08:02:10;101481.50;;;21.16;37.21
44441;BME280;30146;52.268;20.944;2023-03-01T08:04:39;101480.75;;;21.52;36.45
44441;BME280;30146;52.268;20.944;2023-03-01T08:07:07;101477.87;;;21.96;36.15
44441;BME280;30146;52.268;20.944;2023-03-01T08:09:36;101477.98;;;22.42;35.57
44441;BME280;30146;52.268;20.944;2023-03-01T08:12:08;101477.64;;;22.79;34.79
44441;BME280;30146;52.268;20.944;2023-03-01T08:14:36;101479.58;;;23.08;34.08
44441;BME280;30146;52.268;20.944;2023-03-01T08:17:05;101479.23;;;23.24;33.28
44441;BME280;30146;52.268;20.944;2023-03-01T08:19:36;101478.95;;;23.38;32.76
44441;BME280;30146;52.268;20.944;2023-03-01T08:22:07;101482.08;;;23.38;32.17
44441;BME280;30146;52.268;20.944;2023-03-01T08:24:49;101482.09;;;23.34;31.80
44441;BME280;30146;52.268;20.944;2023-03-01T08:27:17;101482.73;;;23.12;31.03
44441;BME280;30146;52.268;20.944;2023-03-01T08:29:54;101483.02;;;22.96;31.06
44441;BME280;30146;52.268;20.944;2023-03-01T08:32:25;101483.02;;;22.93;30.87
44441;BME280;30146;52.268;20.944;2023-03-01T08:34:54;101480.44;;;22.80;30.65
44441;BME280;30146;52.268;20.944;2023-03-01T08:37:22;101473.28;;;22.76;30.80
44441;BME280;30146;52.268;20.944;2023-03-01T08:39:50;101468.30;;;22.57;30.03
44441;BME280;30146;52.268;20.944;2023-03-01T08:42:19;101467.02;;;22.38;30.08
44441;BME280;30146;52.268;20.944;2023-03-01T08:44:47;101466.59;;;22.31;30.06
44441;BME280;30146;52.268;20.944;2023-03-01T08:47:16;101468.50;;;22.27;30.14
44441;BME280;30146;52.268;20.944;2023-03-01T08:49:44;101467.48;;;22.26;30.05
44441;BME280;30146;52.268;20.944;2023-03-01T08:52:13;101474.48;;;22.25;29.88
44441;BME280;30146;52.268;20.944;2023-03-01T08:54:41;101476.77;;;22.29;29.91
44441;BME280;30146;52.268;20.944;2023-03-01T08:57:09;101480.61;;;22.42;29.55
44441;BME280;30146;52.268;20.944;2023-03-01T08:59:37;101479.98;;;22.53;29.29
44441;BME280;30146;52.268;20.944;2023-03-01T09:02:10;101480.21;;;22.56;29.29
44441;BME280;30146;52.268;20.944;2023-03-01T09:04:39;101481.89;;;22.62;29.33
44441;BME280;30146;52.268;20.944;2023-03-01T09:07:08;101477.35;;;22.58;29.34
44441;BME280;30146;52.268;20.944;2023-03-01T09:09:38;101477.48;;;22.33;29.04
44441;BME280;30146;52.268;20.944;2023-03-01T09:12:06;101483.15;;;22.26;29.32
44441;BME280;30146;52.268;20.944;2023-03-01T09:14:39;101478.07;;;22.31;29.33
44441;BME280;30146;52.268;20.944;2023-03-01T09:17:08;101476.59;;;22.46;29.63
44441;BME280;30146;52.268;20.944;2023-03-01T09:19:37;101475.55;;;22.63;29.63
44441;BME280;30146;52.268;20.944;2023-03-01T09:22:05;101469.05;;;22.68;29.39
44441;BME280;30146;52.268;20.944;2023-03-01T09:24:34;101466.82;;;22.64;29.35
44441;BME280;30146;52.268;20.944;2023-03-01T09:27:03;101468.01;;;22.52;29.45
44441;BME280;30146;52.268;20.944;2023-03-01T09:29:36;101464.42;;;22.20;29.34
44441;BME280;30146;52.268;20.944;2023-03-01T09:32:05;101457.43;;;21.71;29.24
44441;BME280;30146;52.268;20.944;2023-03-01T09:34:35;101457.98;;;21.22;29.51
44441;BME280;30146;52.268;20.944;2023-03-01T09:37:25;101449.91;;;20.64;29.53
44441;BME280;30146;52.268;20.944;2023-03-01T09:39:59;101449.63;;;20.08;29.73
44441;BME280;30146;52.268;20.944;2023-03-01T09:42:29;101450.76;;;19.65;30.00
44441;BME280;30146;52.268;20.944;2023-03-01T09:45:06;101451.23;;;19.29;30.65
44441;BME280;30146;52.268;20.944;2023-03-01T09:47:54;101452.99;;;19.04;31.00
44441;BME280;30146;52.268;20.944;2023-03-01T09:50:31;101457.80;;;18.78;30.98
44441;BME280;30146;52.268;20.944;2023-03-01T09:53:02;101454.57;;;18.55;31.28
44441;BME280;30146;52.268;20.944;2023-03-01T09:55:37;101449.49;;;18.36;31.42
44441;BME280;30146;52.268;20.944;2023-03-01T09:58:23;101443.22;;;18.16;31.44
44441;BME280;30146;52.268;20.944;2023-03-01T10:00:57;101436.73;;;17.89;31.59
44441;BME280;30146;52.268;20.944;2023-03-01T10:03:31;101441.28;;;17.70;31.77
44441;BME280;30146;52.268;20.944;2023-03-01T10:06:12;101432.52;;;17.51;32.01
44441;BME280;30146;52.268;20.944;2023-03-01T10:09:07;101429.72;;;17.27;31.96
44441;BME280;30146;52.268;20.944;2023-03-01T10:11:42;101425.98;;;17.06;32.06
44441;BME280;30146;52.268;20.944;2023-03-01T10:14:18;101418.79;;;16.84;32.23
44441;BME280;30146;52.268;20.944;2023-03-01T10:16:54;101413.81;;;16.61;32.35
44441;BME280;30146;52.268;20.944;2023-03-01T10:19:32;101412.73;;;16.43;32.62
44441;BME280;30146;52.268;20.944;2023-03-01T10:22:05;101411.17;;;16.33;32.93
44441;BME280;30146;52.268;20.944;2023-03-01T10:24:38;101412.16;;;16.26;33.01
44441;BME280;30146;52.268;20.944;2023-03-01T10:27:09;101408.43;;;16.10;32.97
44441;BME280;30146;52.268;20.944;2023-03-01T10:29:50;101408.82;;;15.96;33.00
44441;BME280;30146;52.268;20.944;2023-03-01T10:32:22;101405.42;;;15.80;33.18
44441;BME280;30146;52.268;20.944;2023-03-01T10:34:53;101407.15;;;15.66;33.28
44441;BME280;30146;52.268;20.944;2023-03-01T10:37:22;101410.61;;;15.51;33.40
44441;BME280;30146;52.268;20.944;2023-03-01T10:39:57;101411.94;;;15.41;33.87
44441;BME280;30146;52.268;20.944;2023-03-01T10:42:29;101408.13;;;15.42;34.28
44441;BME280;30146;52.268;20.944;2023-03-01T10:44:59;101409.35;;;15.41;33.96
44441;BME280;30146;52.268;20.944;2023-03-01T10:47:42;101407.26;;;15.30;33.94
44441;BME280;30146;52.268;20.944;2023-03-01T10:50:21;101402.81;;;15.27;34.38
44441;BME280;30146;52.268;20.944;2023-03-01T10:52:58;101400.29;;;15.22;34.22
44441;BME280;30146;52.268;20.944;2023-03-01T10:55:31;101400.04;;;15.14;34.41
44441;BME280;30146;52.268;20.944;2023-03-01T10:58:16;101399.92;;;15.08;34.27
44441;BME280;30146;52.268;20.944;2023-03-01T11:00:49;101401.65;;;14.91;34.10
44441;BME280;30146;52.268;20.944;2023-03-01T11:03:23;101406.15;;;14.72;34.17
44441;BME280;30146;52.268;20.944;2023-03-01T11:05:57;101410.42;;;14.53;34.41
44441;BME280;30146;52.268;20.944;2023-03-01T11:08:41;101406.56;;;14.42;34.77
44441;BME280;30146;52.268;20.944;2023-03-01T11:11:31;101400.62;;;14.32;34.80
44441;BME280;30146;52.268;20.944;2023-03-01T11:14:05;101399.80;;;14.28;35.09
44441;BME280;30146;52.268;20.944;2023-03-01T11:17:00;101393.65;;;14.22;35.22
44441;BME280;30146;52.268;20.944;2023-03-01T11:19:32;101389.75;;;14.14;35.21
44441;BME280;30146;52.268;20.944;2023-03-01T11:22:07;101383.63;;;14.04;35.28
44441;BME280;30146;52.268;20.944;2023-03-01T11:24:41;101380.49;;;13.85;35.18
44441;BME280;30146;52.268;20.944;2023-03-01T11:27:18;101374.77;;;13.67;35.34
44441;BME280;30146;52.268;20.944;2023-03-01T11:29:51;101375.88;;;13.52;35.57
44441;BME280;30146;52.268;20.944;2023-03-01T11:32:24;101373.02;;;13.38;35.84
44441;BME280;30146;52.268;20.944;2023-03-01T11:34:57;101372.71;;;13.32;36.29
44441;BME280;30146;52.268;20.944;2023-03-01T11:37:37;101371.01;;;13.21;36.32
44441;BME280;30146;52.268;20.944;2023-03-01T11:40:17;101369.00;;;13.06;36.21
44441;BME280;30146;52.268;20.944;2023-03-01T11:43:08;101368.20;;;12.85;36.18
44441;BME280;30146;52.268;20.944;2023-03-01T11:45:53;101368.73;;;12.69;36.56
44441;BME280;30146;52.268;20.944;2023-03-01T11:48:40;101373.23;;;12.57;36.83
44441;BME280;30146;52.268;20.944;2023-03-01T11:51:24;101369.63;;;12.47;37.23
44441;BME280;30146;52.268;20.944;2023-03-01T11:54:06;101370.83;;;12.46;37.57
44441;BME280;30146;52.268;20.944;2023-03-01T11:56:41;101370.48;;;12.45;37.70
44441;BME280;30146;52.268;20.944;2023-03-01T11:59:35;101365.87;;;12.39;37.69
44441;BME280;30146;52.268;20.944;2023-03-01T12:05:18;101366.39;;;12.35;37.98
44441;BME280;30146;52.268;20.944;2023-03-01T12:07:54;101366.56;;;12.35;38.22
44441;BME280;30146;52.268;20.944;2023-03-01T12:10:28;101368.77;;;12.43;38.54
44441;BME280;30146;52.268;20.944;2023-03-01T12:13:25;101370.48;;;12.52;38.70
44441;BME280;30146;52.268;20.944;2023-03-01T12:16:25;101368.94;;;12.58;38.71
44441;BME280;30146;52.268;20.944;2023-03-01T12:22:26;101367.39;;;12.64;38.93
44441;BME280;30146;52.268;20.944;2023-03-01T12:25:17;101365.15;;;12.61;39.21
44441;BME280;30146;52.268;20.944;2023-03-01T12:30:59;101357.29;;;12.51;39.36
44441;BME280;30146;52.268;20.944;2023-03-01T12:33:43;101354.72;;;12.44;39.59
44441;BME280;30146;52.268;20.944;2023-03-01T12:39:26;101349.41;;;12.38;40.17
44441;BME280;30146;52.268;20.944;2023-03-01T12:42:03;101347.52;;;12.40;40.33
44441;BME280;30146;52.268;20.944;2023-03-01T12:47:36;101347.52;;;12.48;40.74
44441;BME280;30146;52.268;20.944;2023-03-01T12:50:17;101346.48;;;12.52;40.72
44441;BME280;30146;52.268;20.944;2023-03-01T12:52:50;101340.81;;;12.53;40.63
44441;BME280;30146;52.268;20.944;2023-03-01T12:55:26;101333.95;;;12.54;40.73
44441;BME280;30146;52.268;20.944;2023-03-01T12:58:04;101334.30;;;12.52;40.68
44441;BME280;30146;52.268;20.944;2023-03-01T13:00:38;101335.67;;;12.46;40.64
44441;BME280;30146;52.268;20.944;2023-03-01T13:03:16;101331.23;;;12.42;40.73
44441;BME280;30146;52.268;20.944;2023-03-01T13:05:59;101331.06;;;12.36;40.87
44441;BME280;30146;52.268;20.944;2023-03-01T13:08:41;101326.96;;;12.26;40.78
44441;BME280;30146;52.268;20.944;2023-03-01T13:11:18;101329.52;;;12.13;40.71
44441;BME280;30146;52.268;20.944;2023-03-01T13:13:48;101330.39;;;12.05;41.02
44441;BME280;30146;52.268;20.944;2023-03-01T13:16:39;101331.41;;;11.98;41.06
44441;BME280;30146;52.268;20.944;2023-03-01T13:19:15;101332.77;;;11.91;41.38
44441;BME280;30146;52.268;20.944;2023-03-01T13:21:47;101330.86;;;11.86;41.43
44441;BME280;30146;52.268;20.944;2023-03-01T13:24:27;101330.34;;;11.82;41.79
44441;BME280;30146;52.268;20.944;2023-03-01T13:27:22;101323.14;;;11.78;41.71
44441;BME280;30146;52.268;20.944;2023-03-01T13:29:54;101320.21;;;11.73;41.62
44441;BME280;30146;52.268;20.944;2023-03-01T13:32:24;101319.35;;;11.68;41.77